MTN005 KSGF-KIAH
Flight info
| Callsign | MTN005 |
|---|---|
| Flight time | 1h 30m |
| Altitude | 32000 |
| Route | EOS TUL J87 CVE DRLLR5 |
| Aircraft | CRJ7/M-SDFGIRWY/S |
Departure
| Time | 2026-04-22 13:39 |
|---|---|
| Airport | Springfield Branson National Airport (KSGF) |
Arrival
| Time | 2026-04-22 15:09 |
|---|---|
| Airport | George Bush Intercontinental Airport (KIAH) |
| Time | Latitude | Longitude | Altitude | Speed | Heading |
|---|---|---|---|---|---|
| 2026-04-22 12:57 | 37.23998 | -93.39541 | 1265 ft | 0 kts | 282° |
| 2026-04-22 12:59 | 37.23998 | -93.39542 | 1265 ft | 0 kts | 282° |
| 2026-04-22 13:07 | 37.23998 | -93.39543 | 1265 ft | 0 kts | 282° |
| 2026-04-22 13:14 | 37.23998 | -93.39544 | 1265 ft | 0 kts | 282° |
| 2026-04-22 13:22 | 37.23995 | -93.39525 | 1264 ft | 4 kts | 285° |
| 2026-04-22 13:23 | 37.23985 | -93.39495 | 1266 ft | 4 kts | 305° |
| 2026-04-22 13:23 | 37.23967 | -93.39482 | 1265 ft | 4 kts | 13° |
| 2026-04-22 13:23 | 37.23959 | -93.39485 | 1270 ft | 0 kts | 21° |
| 2026-04-22 13:28 | 37.23958 | -93.39485 | 1269 ft | 0 kts | 21° |
| 2026-04-22 13:30 | 37.23970 | -93.39480 | 1265 ft | 4 kts | 21° |
| 2026-04-22 13:30 | 37.24015 | -93.39457 | 1265 ft | 10 kts | 21° |
| 2026-04-22 13:31 | 37.24094 | -93.39417 | 1266 ft | 15 kts | 21° |
| 2026-04-22 13:31 | 37.24166 | -93.39377 | 1266 ft | 1 kts | 43° |
| 2026-04-22 13:31 | 37.24184 | -93.39348 | 1268 ft | 8 kts | 67° |
| 2026-04-22 13:31 | 37.24188 | -93.39318 | 1271 ft | 8 kts | 96° |
| 2026-04-22 13:32 | 37.24170 | -93.39250 | 1272 ft | 10 kts | 111° |
| 2026-04-22 13:32 | 37.24141 | -93.39156 | 1272 ft | 13 kts | 111° |
| 2026-04-22 13:32 | 37.24103 | -93.39036 | 1274 ft | 15 kts | 111° |
| 2026-04-22 13:32 | 37.24086 | -93.38914 | 1277 ft | 14 kts | 77° |
| 2026-04-22 13:33 | 37.24149 | -93.38830 | 1277 ft | 15 kts | 33° |
| 2026-04-22 13:33 | 37.24239 | -93.38757 | 1279 ft | 16 kts | 31° |
| 2026-04-22 13:33 | 37.24351 | -93.38679 | 1273 ft | 21 kts | 24° |
| 2026-04-22 13:33 | 37.24489 | -93.38609 | 1272 ft | 22 kts | 21° |
| 2026-04-22 13:34 | 37.24610 | -93.38549 | 1270 ft | 21 kts | 21° |
| 2026-04-22 13:34 | 37.24761 | -93.38474 | 1271 ft | 23 kts | 21° |
| 2026-04-22 13:34 | 37.24901 | -93.38405 | 1270 ft | 21 kts | 21° |
| 2026-04-22 13:34 | 37.25031 | -93.38340 | 1271 ft | 19 kts | 21° |
| 2026-04-22 13:35 | 37.25143 | -93.38285 | 1271 ft | 16 kts | 21° |
| 2026-04-22 13:35 | 37.25244 | -93.38235 | 1270 ft | 14 kts | 21° |
| 2026-04-22 13:35 | 37.25329 | -93.38192 | 1270 ft | 12 kts | 22° |
| 2026-04-22 13:35 | 37.25370 | -93.38134 | 1269 ft | 7 kts | 87° |
| 2026-04-22 13:36 | 37.25369 | -93.38123 | 1269 ft | 0 kts | 99° |
| 2026-04-22 13:38 | 37.25356 | -93.38080 | 1268 ft | 8 kts | 131° |
| 2026-04-22 13:38 | 37.25301 | -93.38056 | 1268 ft | 1 kts | 201° |
| 2026-04-22 13:38 | 37.25223 | -93.38093 | 1269 ft | 42 kts | 201° |
| 2026-04-22 13:39 | 37.24717 | -93.38347 | 1273 ft | 112 kts | 202° |
| 2026-04-22 13:39 | 37.23816 | -93.38808 | 1319 ft | 159 kts | 203° |
| 2026-04-22 13:39 | 37.22915 | -93.39291 | 2207 ft | 132 kts | 205° |
| 2026-04-22 13:39 | 37.22308 | -93.40150 | 2561 ft | 139 kts | 256° |
| 2026-04-22 13:40 | 37.22373 | -93.41363 | 3038 ft | 139 kts | 272° |
| 2026-04-22 13:40 | 37.22421 | -93.42573 | 3510 ft | 142 kts | 268° |
| 2026-04-22 13:40 | 37.22388 | -93.43963 | 3768 ft | 174 kts | 263° |
| 2026-04-22 13:40 | 37.22212 | -93.45521 | 4308 ft | 189 kts | 256° |
| 2026-04-22 13:41 | 37.21834 | -93.47161 | 4903 ft | 200 kts | 249° |
| 2026-04-22 13:41 | 37.21299 | -93.48786 | 5662 ft | 204 kts | 244° |
| 2026-04-22 13:41 | 37.20673 | -93.50412 | 6345 ft | 210 kts | 242° |
| 2026-04-22 13:41 | 37.20006 | -93.52067 | 6992 ft | 215 kts | 242° |
| 2026-04-22 13:42 | 37.19333 | -93.53766 | 7628 ft | 220 kts | 242° |
| 2026-04-22 13:42 | 37.18754 | -93.55228 | 8159 ft | 223 kts | 241° |
| 2026-04-22 13:42 | 37.18061 | -93.56990 | 8784 ft | 228 kts | 241° |
| 2026-04-22 13:42 | 37.17362 | -93.58790 | 9398 ft | 232 kts | 242° |
| 2026-04-22 13:43 | 37.16654 | -93.60629 | 10013 ft | 236 kts | 242° |
| 2026-04-22 13:43 | 37.15935 | -93.62499 | 10566 ft | 240 kts | 242° |
| 2026-04-22 13:43 | 37.15204 | -93.64393 | 11096 ft | 243 kts | 242° |
| 2026-04-22 13:43 | 37.14459 | -93.66312 | 11616 ft | 247 kts | 242° |
| 2026-04-22 13:44 | 37.13704 | -93.68260 | 12120 ft | 250 kts | 242° |
| 2026-04-22 13:44 | 37.12943 | -93.70229 | 12618 ft | 253 kts | 243° |
| 2026-04-22 13:44 | 37.12182 | -93.72196 | 13100 ft | 256 kts | 243° |
| 2026-04-22 13:44 | 37.11403 | -93.74212 | 13587 ft | 258 kts | 243° |
| 2026-04-22 13:45 | 37.10614 | -93.76249 | 14059 ft | 261 kts | 243° |
| 2026-04-22 13:45 | 37.09819 | -93.78302 | 14495 ft | 263 kts | 243° |
| 2026-04-22 13:45 | 37.09018 | -93.80369 | 14932 ft | 264 kts | 243° |
| 2026-04-22 13:45 | 37.08211 | -93.82446 | 15330 ft | 267 kts | 243° |
| 2026-04-22 13:46 | 37.07370 | -93.84615 | 15363 ft | 286 kts | 244° |
| 2026-04-22 13:46 | 37.06476 | -93.86918 | 15395 ft | 302 kts | 244° |
| 2026-04-22 13:46 | 37.05557 | -93.89280 | 15435 ft | 317 kts | 244° |
| 2026-04-22 13:46 | 37.04668 | -93.91558 | 15576 ft | 337 kts | 243° |
| 2026-04-22 13:47 | 37.03610 | -93.94275 | 15890 ft | 357 kts | 244° |
| 2026-04-22 13:47 | 37.02495 | -93.97127 | 16255 ft | 373 kts | 244° |
| 2026-04-22 13:47 | 37.01339 | -94.00093 | 16721 ft | 384 kts | 244° |
| 2026-04-22 13:47 | 37.00167 | -94.03086 | 17493 ft | 384 kts | 244° |
| 2026-04-22 13:48 | 36.98991 | -94.06092 | 18088 ft | 385 kts | 244° |
| 2026-04-22 13:48 | 36.97809 | -94.09113 | 18629 ft | 387 kts | 245° |
| 2026-04-22 13:48 | 36.96624 | -94.12146 | 19090 ft | 390 kts | 245° |
| 2026-04-22 13:48 | 36.95430 | -94.15199 | 19532 ft | 393 kts | 245° |
| 2026-04-22 13:49 | 36.94313 | -94.18044 | 19941 ft | 395 kts | 245° |
| 2026-04-22 13:49 | 36.93099 | -94.21136 | 20376 ft | 398 kts | 245° |
| 2026-04-22 13:49 | 36.91907 | -94.24161 | 20784 ft | 401 kts | 245° |
| 2026-04-22 13:49 | 36.90726 | -94.27158 | 21176 ft | 404 kts | 245° |
| 2026-04-22 13:50 | 36.89562 | -94.30113 | 21558 ft | 406 kts | 245° |
| 2026-04-22 13:50 | 36.88310 | -94.33292 | 21955 ft | 409 kts | 244° |
| 2026-04-22 13:50 | 36.87049 | -94.36481 | 22354 ft | 411 kts | 244° |
| 2026-04-22 13:50 | 36.85779 | -94.39695 | 22744 ft | 414 kts | 244° |
| 2026-04-22 13:51 | 36.84499 | -94.42922 | 23126 ft | 416 kts | 244° |
| 2026-04-22 13:51 | 36.83159 | -94.46083 | 23501 ft | 418 kts | 241° |
| 2026-04-22 13:51 | 36.81684 | -94.49222 | 23854 ft | 421 kts | 239° |
| 2026-04-22 13:51 | 36.80139 | -94.52390 | 24162 ft | 423 kts | 239° |
| 2026-04-22 13:52 | 36.78607 | -94.55534 | 24462 ft | 425 kts | 239° |
| 2026-04-22 13:52 | 36.77096 | -94.58712 | 24749 ft | 427 kts | 240° |
| 2026-04-22 13:52 | 36.75588 | -94.61911 | 25034 ft | 429 kts | 240° |
| 2026-04-22 13:52 | 36.74072 | -94.65124 | 25310 ft | 431 kts | 240° |
| 2026-04-22 13:53 | 36.72550 | -94.68357 | 25576 ft | 433 kts | 240° |
| 2026-04-22 13:53 | 36.71037 | -94.71557 | 25838 ft | 435 kts | 240° |
| 2026-04-22 13:53 | 36.69498 | -94.74817 | 26092 ft | 437 kts | 240° |
| 2026-04-22 13:53 | 36.67951 | -94.78091 | 26341 ft | 439 kts | 240° |
| 2026-04-22 13:54 | 36.66396 | -94.81375 | 26593 ft | 441 kts | 240° |
| 2026-04-22 13:54 | 36.64834 | -94.84668 | 26846 ft | 443 kts | 240° |
| 2026-04-22 13:54 | 36.63270 | -94.87973 | 27064 ft | 445 kts | 240° |
| 2026-04-22 13:54 | 36.61692 | -94.91298 | 27304 ft | 446 kts | 240° |
| 2026-04-22 13:55 | 36.60108 | -94.94629 | 27533 ft | 448 kts | 240° |
| 2026-04-22 13:55 | 36.58517 | -94.97972 | 27754 ft | 450 kts | 240° |
| 2026-04-22 13:55 | 36.56919 | -95.01327 | 27977 ft | 452 kts | 240° |
| 2026-04-22 13:55 | 36.55313 | -95.04694 | 28190 ft | 453 kts | 239° |
| 2026-04-22 13:56 | 36.53701 | -95.08071 | 28398 ft | 455 kts | 239° |
| 2026-04-22 13:56 | 36.52083 | -95.11459 | 28679 ft | 455 kts | 239° |
| 2026-04-22 13:56 | 36.50782 | -95.14180 | 28894 ft | 455 kts | 239° |
| 2026-04-22 13:56 | 36.49167 | -95.17561 | 29178 ft | 455 kts | 239° |
| 2026-04-22 13:57 | 36.47551 | -95.20940 | 29451 ft | 454 kts | 239° |
| 2026-04-22 13:57 | 36.45933 | -95.24312 | 29698 ft | 455 kts | 239° |
| 2026-04-22 13:57 | 36.44314 | -95.27678 | 29968 ft | 454 kts | 239° |
| 2026-04-22 13:57 | 36.42698 | -95.31047 | 30202 ft | 454 kts | 239° |
| 2026-04-22 13:58 | 36.41077 | -95.34417 | 30422 ft | 454 kts | 239° |
| 2026-04-22 13:58 | 36.39457 | -95.37777 | 30635 ft | 454 kts | 239° |
| 2026-04-22 13:58 | 36.37840 | -95.41137 | 30843 ft | 453 kts | 239° |
| 2026-04-22 13:58 | 36.36223 | -95.44488 | 31051 ft | 452 kts | 239° |
| 2026-04-22 13:59 | 36.34607 | -95.47832 | 31266 ft | 452 kts | 239° |
| 2026-04-22 13:59 | 36.32993 | -95.51176 | 31461 ft | 451 kts | 239° |
| 2026-04-22 13:59 | 36.31380 | -95.54509 | 31656 ft | 451 kts | 239° |
| 2026-04-22 13:59 | 36.29767 | -95.57839 | 31854 ft | 450 kts | 239° |
| 2026-04-22 14:00 | 36.28153 | -95.61163 | 32014 ft | 451 kts | 239° |
| 2026-04-22 14:00 | 36.26533 | -95.64502 | 32087 ft | 453 kts | 239° |
| 2026-04-22 14:00 | 36.23174 | -95.71107 | 32134 ft | 459 kts | 230° |
| 2026-04-22 14:01 | 36.20899 | -95.73886 | 32149 ft | 461 kts | 216° |
| 2026-04-22 14:01 | 36.18263 | -95.76159 | 32155 ft | 464 kts | 212° |
| 2026-04-22 14:01 | 36.12696 | -95.80312 | 32156 ft | 470 kts | 208° |
| 2026-04-22 14:02 | 36.06767 | -95.83763 | 32152 ft | 473 kts | 194° |
| 2026-04-22 14:02 | 36.00319 | -95.85598 | 32156 ft | 478 kts | 192° |
| 2026-04-22 14:03 | 35.94193 | -95.87646 | 32154 ft | 471 kts | 195° |
| 2026-04-22 14:03 | 35.91123 | -95.88781 | 32143 ft | 450 kts | 195° |
| 2026-04-22 14:03 | 35.88153 | -95.89871 | 32131 ft | 443 kts | 194° |
| 2026-04-22 14:04 | 35.82242 | -95.91949 | 32141 ft | 444 kts | 194° |
| 2026-04-22 14:04 | 35.76231 | -95.94038 | 32152 ft | 453 kts | 194° |
| 2026-04-22 14:05 | 35.70130 | -95.96164 | 32158 ft | 457 kts | 194° |
| 2026-04-22 14:06 | 35.61354 | -95.99208 | 32160 ft | 465 kts | 194° |
| 2026-04-22 14:06 | 35.55075 | -96.01384 | 32156 ft | 472 kts | 194° |
| 2026-04-22 14:07 | 35.48715 | -96.03580 | 32153 ft | 478 kts | 194° |
| 2026-04-22 14:07 | 35.42285 | -96.05803 | 32151 ft | 482 kts | 194° |
| 2026-04-22 14:08 | 35.35808 | -96.08034 | 32147 ft | 485 kts | 193° |
| 2026-04-22 14:08 | 35.29289 | -96.10276 | 32143 ft | 488 kts | 193° |
| 2026-04-22 14:09 | 35.22743 | -96.12526 | 32146 ft | 490 kts | 193° |
| 2026-04-22 14:09 | 35.16168 | -96.14776 | 32146 ft | 492 kts | 193° |
| 2026-04-22 14:10 | 35.09610 | -96.17023 | 32151 ft | 493 kts | 193° |
| 2026-04-22 14:10 | 35.02995 | -96.19284 | 32140 ft | 494 kts | 193° |
| 2026-04-22 14:11 | 34.96369 | -96.21544 | 32138 ft | 495 kts | 193° |
| 2026-04-22 14:11 | 34.89734 | -96.23800 | 32138 ft | 495 kts | 193° |
| 2026-04-22 14:12 | 34.83093 | -96.26063 | 32139 ft | 496 kts | 193° |
| 2026-04-22 14:12 | 34.76453 | -96.28316 | 32139 ft | 496 kts | 193° |
| 2026-04-22 14:13 | 34.69805 | -96.30568 | 32136 ft | 496 kts | 193° |
| 2026-04-22 14:13 | 34.63158 | -96.32819 | 32139 ft | 496 kts | 193° |
| 2026-04-22 14:14 | 34.56504 | -96.35067 | 32141 ft | 496 kts | 193° |
| 2026-04-22 14:14 | 34.53217 | -96.36172 | 32136 ft | 485 kts | 193° |
| 2026-04-22 14:14 | 34.49999 | -96.37258 | 32131 ft | 475 kts | 193° |
| 2026-04-22 14:15 | 34.43703 | -96.39379 | 32130 ft | 464 kts | 193° |
| 2026-04-22 14:15 | 34.37568 | -96.41441 | 32130 ft | 458 kts | 193° |
| 2026-04-22 14:16 | 34.31429 | -96.43501 | 32134 ft | 457 kts | 193° |
| 2026-04-22 14:16 | 34.25302 | -96.45557 | 32137 ft | 456 kts | 193° |
| 2026-04-22 14:17 | 34.19190 | -96.47600 | 32152 ft | 456 kts | 193° |
| 2026-04-22 14:17 | 34.13074 | -96.49644 | 32159 ft | 456 kts | 194° |
| 2026-04-22 14:18 | 34.06977 | -96.51679 | 32168 ft | 454 kts | 194° |
| 2026-04-22 14:18 | 34.00875 | -96.53712 | 32176 ft | 456 kts | 194° |
| 2026-04-22 14:19 | 33.94747 | -96.55751 | 32179 ft | 459 kts | 194° |
| 2026-04-22 14:19 | 33.88547 | -96.57806 | 32176 ft | 464 kts | 194° |
| 2026-04-22 14:20 | 33.79140 | -96.60926 | 32170 ft | 470 kts | 194° |
| 2026-04-22 14:20 | 33.72811 | -96.63022 | 32169 ft | 472 kts | 194° |
| 2026-04-22 14:21 | 33.63406 | -96.66123 | 32162 ft | 463 kts | 194° |
| 2026-04-22 14:22 | 33.54143 | -96.69178 | 32151 ft | 460 kts | 194° |
| 2026-04-22 14:23 | 33.44797 | -96.72248 | 32144 ft | 468 kts | 194° |
| 2026-04-22 14:23 | 33.38524 | -96.74309 | 32139 ft | 466 kts | 194° |
| 2026-04-22 14:24 | 33.32280 | -96.76355 | 32140 ft | 464 kts | 194° |
| 2026-04-22 14:24 | 33.26068 | -96.78388 | 32141 ft | 462 kts | 194° |
| 2026-04-22 14:25 | 33.19859 | -96.80413 | 32137 ft | 464 kts | 194° |
| 2026-04-22 14:25 | 33.13620 | -96.82451 | 32147 ft | 466 kts | 194° |
| 2026-04-22 14:26 | 33.07351 | -96.84492 | 32153 ft | 468 kts | 194° |
| 2026-04-22 14:26 | 33.01059 | -96.86539 | 32155 ft | 469 kts | 194° |
| 2026-04-22 14:27 | 32.94744 | -96.88539 | 32152 ft | 470 kts | 190° |
| 2026-04-22 14:27 | 32.91490 | -96.88860 | 32160 ft | 469 kts | 178° |
| 2026-04-22 14:27 | 32.88229 | -96.88690 | 32152 ft | 469 kts | 177° |
| 2026-04-22 14:28 | 32.81768 | -96.88200 | 32147 ft | 468 kts | 175° |
| 2026-04-22 14:28 | 32.75416 | -96.86648 | 32140 ft | 467 kts | 165° |
| 2026-04-22 14:29 | 32.69375 | -96.84672 | 32134 ft | 467 kts | 166° |
| 2026-04-22 14:29 | 32.64086 | -96.83171 | 32135 ft | 466 kts | 167° |
| 2026-04-22 14:30 | 32.57784 | -96.81358 | 32133 ft | 466 kts | 167° |
| 2026-04-22 14:30 | 32.51480 | -96.79563 | 32143 ft | 466 kts | 167° |
| 2026-04-22 14:31 | 32.45180 | -96.77759 | 32141 ft | 466 kts | 167° |
| 2026-04-22 14:31 | 32.38893 | -96.75963 | 32138 ft | 469 kts | 168° |
| 2026-04-22 14:32 | 32.32532 | -96.74152 | 32137 ft | 472 kts | 168° |
| 2026-04-22 14:32 | 32.26164 | -96.72339 | 32135 ft | 469 kts | 168° |
| 2026-04-22 14:33 | 32.19820 | -96.70534 | 32131 ft | 469 kts | 168° |
| 2026-04-22 14:33 | 32.13472 | -96.68734 | 32133 ft | 470 kts | 168° |
| 2026-04-22 14:34 | 32.07111 | -96.66932 | 32134 ft | 471 kts | 168° |
| 2026-04-22 14:34 | 32.00740 | -96.65128 | 32135 ft | 471 kts | 168° |
| 2026-04-22 14:35 | 31.94352 | -96.63324 | 32134 ft | 472 kts | 169° |
| 2026-04-22 14:35 | 31.87958 | -96.61521 | 32130 ft | 473 kts | 169° |
| 2026-04-22 14:36 | 31.81553 | -96.59714 | 32133 ft | 473 kts | 169° |
| 2026-04-22 14:36 | 31.75140 | -96.57910 | 32138 ft | 474 kts | 169° |
| 2026-04-22 14:37 | 31.68724 | -96.56109 | 32151 ft | 475 kts | 169° |
| 2026-04-22 14:37 | 31.62293 | -96.54304 | 32149 ft | 476 kts | 169° |
| 2026-04-22 14:38 | 31.55849 | -96.52499 | 32142 ft | 476 kts | 169° |
| 2026-04-22 14:38 | 31.49557 | -96.49972 | 32141 ft | 481 kts | 159° |
| 2026-04-22 14:39 | 31.43575 | -96.46413 | 32123 ft | 484 kts | 154° |
| 2026-04-22 14:39 | 31.37672 | -96.42625 | 32043 ft | 482 kts | 155° |
| 2026-04-22 14:40 | 31.31791 | -96.39036 | 31621 ft | 468 kts | 155° |
| 2026-04-22 14:40 | 31.28929 | -96.37290 | 31157 ft | 460 kts | 155° |
| 2026-04-22 14:40 | 31.26155 | -96.35586 | 30583 ft | 455 kts | 155° |
| 2026-04-22 14:40 | 31.23315 | -96.33868 | 29968 ft | 453 kts | 155° |
| 2026-04-22 14:41 | 31.20525 | -96.32165 | 29278 ft | 450 kts | 155° |
| 2026-04-22 14:41 | 31.17762 | -96.30483 | 28597 ft | 447 kts | 155° |
| 2026-04-22 14:41 | 31.15008 | -96.28808 | 27930 ft | 445 kts | 155° |
| 2026-04-22 14:41 | 31.12273 | -96.27143 | 27301 ft | 441 kts | 155° |
| 2026-04-22 14:42 | 31.09571 | -96.25500 | 26673 ft | 435 kts | 155° |
| 2026-04-22 14:42 | 31.06901 | -96.23881 | 26059 ft | 431 kts | 155° |
| 2026-04-22 14:42 | 31.04290 | -96.22296 | 25477 ft | 426 kts | 155° |
| 2026-04-22 14:42 | 31.01676 | -96.20707 | 24898 ft | 422 kts | 155° |
| 2026-04-22 14:43 | 30.99081 | -96.19122 | 24335 ft | 419 kts | 155° |
| 2026-04-22 14:43 | 30.96523 | -96.17539 | 23908 ft | 412 kts | 154° |
| 2026-04-22 14:43 | 30.94048 | -96.15946 | 23674 ft | 401 kts | 154° |
| 2026-04-22 14:43 | 30.91639 | -96.14396 | 23385 ft | 391 kts | 154° |
| 2026-04-22 14:44 | 30.89285 | -96.12882 | 23081 ft | 382 kts | 154° |
| 2026-04-22 14:44 | 30.86979 | -96.11402 | 22792 ft | 375 kts | 154° |
| 2026-04-22 14:44 | 30.84720 | -96.09941 | 22496 ft | 368 kts | 153° |
| 2026-04-22 14:44 | 30.82503 | -96.08488 | 22205 ft | 362 kts | 153° |
| 2026-04-22 14:45 | 30.80323 | -96.07061 | 21921 ft | 357 kts | 153° |
| 2026-04-22 14:45 | 30.78172 | -96.05669 | 21632 ft | 352 kts | 154° |
| 2026-04-22 14:45 | 30.76038 | -96.04301 | 21347 ft | 348 kts | 154° |
| 2026-04-22 14:45 | 30.73928 | -96.02954 | 21065 ft | 344 kts | 154° |
| 2026-04-22 14:46 | 30.71847 | -96.01626 | 20785 ft | 340 kts | 154° |
| 2026-04-22 14:46 | 30.69781 | -96.00303 | 20501 ft | 337 kts | 154° |
| 2026-04-22 14:46 | 30.67737 | -95.98991 | 20221 ft | 334 kts | 153° |
| 2026-04-22 14:46 | 30.65718 | -95.97695 | 20018 ft | 329 kts | 154° |
| 2026-04-22 14:47 | 30.63719 | -95.96415 | 19711 ft | 329 kts | 154° |
| 2026-04-22 14:47 | 30.61654 | -95.95103 | 19311 ft | 360 kts | 154° |
| 2026-04-22 14:47 | 30.59381 | -95.93663 | 18940 ft | 380 kts | 153° |
| 2026-04-22 14:47 | 30.57069 | -95.92184 | 18587 ft | 378 kts | 153° |
| 2026-04-22 14:48 | 30.54770 | -95.90716 | 18192 ft | 373 kts | 153° |
| 2026-04-22 14:48 | 30.52512 | -95.89272 | 17751 ft | 369 kts | 153° |
| 2026-04-22 14:48 | 30.50278 | -95.87841 | 17316 ft | 365 kts | 153° |
| 2026-04-22 14:48 | 30.48135 | -95.86285 | 16876 ft | 363 kts | 145° |
| 2026-04-22 14:49 | 30.46281 | -95.84522 | 16481 ft | 361 kts | 140° |
| 2026-04-22 14:49 | 30.44420 | -95.82578 | 16077 ft | 358 kts | 139° |
| 2026-04-22 14:49 | 30.42582 | -95.80643 | 15696 ft | 356 kts | 139° |
| 2026-04-22 14:49 | 30.40735 | -95.78745 | 15350 ft | 354 kts | 140° |
| 2026-04-22 14:50 | 30.38872 | -95.76904 | 14973 ft | 351 kts | 141° |
| 2026-04-22 14:50 | 30.37014 | -95.75079 | 14587 ft | 349 kts | 141° |
| 2026-04-22 14:50 | 30.35171 | -95.73269 | 14258 ft | 345 kts | 141° |
| 2026-04-22 14:50 | 30.33335 | -95.71496 | 13952 ft | 342 kts | 141° |
| 2026-04-22 14:51 | 30.31543 | -95.69768 | 13560 ft | 330 kts | 141° |
| 2026-04-22 14:51 | 30.29813 | -95.68097 | 13162 ft | 319 kts | 142° |
| 2026-04-22 14:51 | 30.28110 | -95.66453 | 12770 ft | 318 kts | 141° |
| 2026-04-22 14:51 | 30.26415 | -95.64814 | 12406 ft | 316 kts | 142° |
| 2026-04-22 14:52 | 30.24755 | -95.63219 | 12034 ft | 306 kts | 141° |
| 2026-04-22 14:52 | 30.23149 | -95.61661 | 11680 ft | 297 kts | 141° |
| 2026-04-22 14:52 | 30.21560 | -95.60131 | 11346 ft | 300 kts | 142° |
| 2026-04-22 14:52 | 30.19941 | -95.58583 | 11013 ft | 304 kts | 142° |
| 2026-04-22 14:53 | 30.18302 | -95.57010 | 10694 ft | 305 kts | 141° |
| 2026-04-22 14:53 | 30.16700 | -95.55468 | 10369 ft | 295 kts | 142° |
| 2026-04-22 14:53 | 30.15148 | -95.53979 | 10032 ft | 286 kts | 141° |
| 2026-04-22 14:53 | 30.13626 | -95.52527 | 9731 ft | 284 kts | 142° |
| 2026-04-22 14:54 | 30.12097 | -95.51085 | 9534 ft | 282 kts | 142° |
| 2026-04-22 14:54 | 30.10595 | -95.49670 | 9438 ft | 275 kts | 141° |
| 2026-04-22 14:54 | 30.09458 | -95.47968 | 9352 ft | 267 kts | 110° |
| 2026-04-22 14:54 | 30.09110 | -95.45942 | 9313 ft | 249 kts | 93° |
| 2026-04-22 14:55 | 30.09093 | -95.44012 | 9285 ft | 233 kts | 90° |
| 2026-04-22 14:55 | 30.09083 | -95.42210 | 9260 ft | 217 kts | 91° |
| 2026-04-22 14:55 | 30.09067 | -95.40500 | 9048 ft | 212 kts | 91° |
| 2026-04-22 14:55 | 30.09051 | -95.38746 | 8751 ft | 227 kts | 91° |
| 2026-04-22 14:56 | 30.09037 | -95.36866 | 8493 ft | 241 kts | 91° |
| 2026-04-22 14:56 | 30.09025 | -95.34874 | 8232 ft | 253 kts | 91° |
| 2026-04-22 14:56 | 30.09015 | -95.32827 | 7989 ft | 263 kts | 91° |
| 2026-04-22 14:56 | 30.09007 | -95.30675 | 7739 ft | 272 kts | 91° |
| 2026-04-22 14:57 | 30.09001 | -95.28431 | 7493 ft | 279 kts | 91° |
| 2026-04-22 14:57 | 30.08998 | -95.26235 | 7296 ft | 273 kts | 91° |
| 2026-04-22 14:57 | 30.08999 | -95.24081 | 7195 ft | 263 kts | 91° |
| 2026-04-22 14:57 | 30.09002 | -95.21985 | 7141 ft | 252 kts | 90° |
| 2026-04-22 14:58 | 30.09005 | -95.20034 | 7107 ft | 241 kts | 91° |
| 2026-04-22 14:58 | 30.09011 | -95.18146 | 7088 ft | 229 kts | 90° |
| 2026-04-22 14:58 | 30.09015 | -95.16353 | 7077 ft | 218 kts | 91° |
| 2026-04-22 14:58 | 30.09023 | -95.14645 | 7068 ft | 207 kts | 90° |
| 2026-04-22 14:59 | 30.09032 | -95.13026 | 7061 ft | 196 kts | 90° |
| 2026-04-22 14:59 | 30.09043 | -95.11500 | 7052 ft | 184 kts | 91° |
| 2026-04-22 14:59 | 30.09058 | -95.10077 | 7051 ft | 176 kts | 90° |
| 2026-04-22 14:59 | 30.09074 | -95.08595 | 7122 ft | 191 kts | 90° |
| 2026-04-22 15:00 | 30.09080 | -95.06992 | 7174 ft | 209 kts | 91° |
| 2026-04-22 15:00 | 30.09080 | -95.05212 | 7205 ft | 234 kts | 91° |
| 2026-04-22 15:00 | 30.09085 | -95.03247 | 7196 ft | 256 kts | 90° |
| 2026-04-22 15:00 | 30.09088 | -95.01176 | 7217 ft | 247 kts | 91° |
| 2026-04-22 15:01 | 30.08793 | -94.99349 | 7159 ft | 222 kts | 121° |
| 2026-04-22 15:01 | 30.07719 | -94.98290 | 7142 ft | 192 kts | 160° |
| 2026-04-22 15:01 | 30.06545 | -94.97836 | 7112 ft | 171 kts | 172° |
| 2026-04-22 15:01 | 30.05420 | -94.97674 | 7110 ft | 163 kts | 176° |
| 2026-04-22 15:02 | 30.04206 | -94.97611 | 7114 ft | 185 kts | 188° |
| 2026-04-22 15:02 | 30.03097 | -94.98345 | 7123 ft | 190 kts | 223° |
| 2026-04-22 15:02 | 30.02100 | -94.99402 | 7029 ft | 199 kts | 224° |
| 2026-04-22 15:02 | 30.01121 | -95.00472 | 6602 ft | 196 kts | 224° |
| 2026-04-22 15:03 | 30.00142 | -95.01578 | 5853 ft | 193 kts | 225° |
| 2026-04-22 15:03 | 29.99226 | -95.02646 | 5188 ft | 179 kts | 226° |
| 2026-04-22 15:03 | 29.98762 | -95.03846 | 4853 ft | 160 kts | 267° |
| 2026-04-22 15:03 | 29.98856 | -95.05116 | 4650 ft | 161 kts | 274° |
| 2026-04-22 15:04 | 29.98972 | -95.06402 | 4445 ft | 162 kts | 273° |
| 2026-04-22 15:04 | 29.99079 | -95.07682 | 4241 ft | 161 kts | 272° |
| 2026-04-22 15:04 | 29.99172 | -95.08971 | 4031 ft | 161 kts | 271° |
| 2026-04-22 15:04 | 29.99261 | -95.10242 | 3817 ft | 157 kts | 271° |
| 2026-04-22 15:05 | 29.99325 | -95.11503 | 3607 ft | 158 kts | 268° |
| 2026-04-22 15:05 | 29.99344 | -95.12735 | 3406 ft | 149 kts | 267° |
| 2026-04-22 15:05 | 29.99348 | -95.13966 | 3214 ft | 156 kts | 266° |
| 2026-04-22 15:05 | 29.99350 | -95.15218 | 3014 ft | 158 kts | 266° |
| 2026-04-22 15:06 | 29.99348 | -95.16060 | 2884 ft | 160 kts | 266° |
| 2026-04-22 15:06 | 29.99347 | -95.17787 | 2603 ft | 162 kts | 266° |
| 2026-04-22 15:06 | 29.99349 | -95.19070 | 2395 ft | 156 kts | 266° |
| 2026-04-22 15:06 | 29.99349 | -95.20325 | 2178 ft | 157 kts | 266° |
| 2026-04-22 15:07 | 29.99352 | -95.21588 | 1974 ft | 158 kts | 265° |
| 2026-04-22 15:07 | 29.99349 | -95.22851 | 1761 ft | 161 kts | 266° |
| 2026-04-22 15:07 | 29.99351 | -95.24052 | 1543 ft | 138 kts | 266° |
| 2026-04-22 15:07 | 29.99353 | -95.25100 | 1359 ft | 135 kts | 265° |
| 2026-04-22 15:08 | 29.99343 | -95.26330 | 1274 ft | 165 kts | 266° |
| 2026-04-22 15:08 | 29.99335 | -95.27654 | 1126 ft | 165 kts | 267° |
| 2026-04-22 15:08 | 29.99346 | -95.28990 | 862 ft | 169 kts | 268° |
| 2026-04-22 15:08 | 29.99324 | -95.30311 | 591 ft | 156 kts | 265° |
| 2026-04-22 15:09 | 29.99298 | -95.31536 | 273 ft | 153 kts | 270° |
| 2026-04-22 15:09 | 29.99340 | -95.32755 | 125 ft | 148 kts | 270° |
| 2026-04-22 15:09 | 29.99334 | -95.33704 | 105 ft | 67 kts | 269° |
| 2026-04-22 15:09 | 29.99322 | -95.34017 | 104 ft | 25 kts | 255° |
| 2026-04-22 15:10 | 29.99295 | -95.34102 | 104 ft | 0 kts | 246° |
| 2026-04-22 15:10 | 29.99266 | -95.34168 | 104 ft | 15 kts | 237° |
| 2026-04-22 15:10 | 29.99212 | -95.34272 | 104 ft | 15 kts | 244° |
| 2026-04-22 15:10 | 29.99179 | -95.34411 | 105 ft | 21 kts | 268° |
| 2026-04-22 15:11 | 29.99179 | -95.34607 | 105 ft | 29 kts | 269° |
| 2026-04-22 15:11 | 29.99172 | -95.34848 | 105 ft | 30 kts | 269° |
| 2026-04-22 15:11 | 29.99172 | -95.35093 | 105 ft | 31 kts | 272° |
| 2026-04-22 15:11 | 29.99178 | -95.35340 | 105 ft | 31 kts | 271° |
| 2026-04-22 15:12 | 29.99124 | -95.35487 | 105 ft | 11 kts | 183° |
| 2026-04-22 15:12 | 29.99056 | -95.35489 | 105 ft | 17 kts | 180° |
| 2026-04-22 15:12 | 29.98943 | -95.35489 | 105 ft | 11 kts | 180° |
| 2026-04-22 15:12 | 29.98861 | -95.35486 | 105 ft | 13 kts | 171° |
| 2026-04-22 15:13 | 29.98774 | -95.35445 | 104 ft | 10 kts | 151° |
| 2026-04-22 15:13 | 29.98680 | -95.35385 | 105 ft | 18 kts | 152° |
| 2026-04-22 15:13 | 29.98561 | -95.35311 | 105 ft | 22 kts | 151° |
| 2026-04-22 15:13 | 29.98458 | -95.35245 | 105 ft | 11 kts | 150° |
| 2026-04-22 15:14 | 29.98386 | -95.35171 | 105 ft | 16 kts | 113° |
| 2026-04-22 15:14 | 29.98380 | -95.35070 | 105 ft | 12 kts | 90° |
| 2026-04-22 15:14 | 29.98379 | -95.35042 | 105 ft | 0 kts | 91° |
| 2026-04-22 15:15 | 29.98379 | -95.35033 | 105 ft | 10 kts | 91° |
| 2026-04-22 15:15 | 29.98381 | -95.34941 | 105 ft | 0 kts | 77° |
| 2026-04-22 15:15 | 29.98390 | -95.34904 | 105 ft | 24 kts | 72° |
| 2026-04-22 15:16 | 29.98455 | -95.34788 | 105 ft | 3 kts | 43° |
| 2026-04-22 15:16 | 29.98464 | -95.34778 | 105 ft | 3 kts | 43° |
| 2026-04-22 15:16 | 29.98472 | -95.34769 | 105 ft | 9 kts | 44° |
| 2026-04-22 15:16 | 29.98495 | -95.34744 | 105 ft | 0 kts | 44° |
| 2026-04-22 15:17 | 29.98499 | -95.34740 | 105 ft | 0 kts | 45° |